createdAt,value
2023-04-12T00:00:54.466Z,68.07
2023-04-12T00:03:26.839Z,68.27
2023-04-12T00:05:59.882Z,68.39
2023-04-12T00:08:33.847Z,68.17
2023-04-12T00:11:05.718Z,68.62
2023-04-12T00:13:37.245Z,68.37
2023-04-12T00:16:09.748Z,68.38
2023-04-12T00:18:42.499Z,68.06
2023-04-12T00:21:19.461Z,68.26
2023-04-12T00:23:51.080Z,67.96
2023-04-12T00:26:22.593Z,68.14
2023-04-12T00:28:54.081Z,68.20
2023-04-12T00:31:25.664Z,68.45
2023-04-12T00:33:57.369Z,67.57
2023-04-12T00:36:29.025Z,67.77
2023-04-12T00:39:00.697Z,67.12
2023-04-12T00:41:32.196Z,67.70
2023-04-12T00:44:04.770Z,67.51
2023-04-12T00:46:36.344Z,67.50
2023-04-12T00:49:07.992Z,68.15
2023-04-12T00:51:40.081Z,67.89
2023-04-12T00:54:12.013Z,67.47
2023-04-12T00:56:44.892Z,68.03
2023-04-12T00:59:16.467Z,67.32
2023-04-12T01:01:48.060Z,67.51
2023-04-12T01:04:22.499Z,67.55
2023-04-12T01:07:20.036Z,67.84
2023-04-12T01:10:03.623Z,68.42
2023-04-12T01:12:55.568Z,68.06
2023-04-12T01:15:31.273Z,67.75
2023-04-12T01:18:07.939Z,67.77
2023-04-12T01:20:49.685Z,67.89
2023-04-12T01:23:51.981Z,67.66
2023-04-12T01:26:47.405Z,68.58
2023-04-12T01:29:21.654Z,68.92
2023-04-12T01:32:02.481Z,69.36
2023-04-12T01:34:36.879Z,70.32
2023-04-12T01:37:11.717Z,71.11
2023-04-12T01:39:43.255Z,71.12
2023-04-12T01:42:20.616Z,71.68
2023-04-12T01:44:52.091Z,72.71
2023-04-12T01:47:23.633Z,72.59
2023-04-12T01:50:23.608Z,72.68
2023-04-12T01:53:10.567Z,72.76
2023-04-12T01:55:45.903Z,73.81
2023-04-12T01:58:22.020Z,73.68
2023-04-12T02:00:55.798Z,75.40
2023-04-12T02:03:30.506Z,75.25
2023-04-12T02:06:03.481Z,74.94
2023-04-12T02:08:36.059Z,75.96
2023-04-12T02:11:11.642Z,76.07
2023-04-12T02:13:43.114Z,76.45
2023-04-12T02:16:14.650Z,76.98
2023-04-12T02:18:47.589Z,78.68
2023-04-12T02:21:19.110Z,79.26
2023-04-12T02:23:50.889Z,79.40
2023-04-12T02:26:23.430Z,79.90
2023-04-12T02:28:55.051Z,79.97
2023-04-12T02:31:27.820Z,81.02
2023-04-12T02:33:59.294Z,81.58
2023-04-12T02:36:30.808Z,81.53
2023-04-12T02:39:02.310Z,82.40
2023-04-12T02:41:33.993Z,83.27
2023-04-12T02:44:05.504Z,84.30
2023-04-12T02:46:37.073Z,85.06
2023-04-12T02:49:08.603Z,84.62
2023-04-12T02:51:40.756Z,83.78
2023-04-12T02:54:12.649Z,84.86
2023-04-12T02:56:44.232Z,85.91
2023-04-12T02:59:15.760Z,86.35
2023-04-12T03:01:47.384Z,85.96
2023-04-12T03:04:19.071Z,85.17
2023-04-12T03:06:53.827Z,85.22
2023-04-12T03:09:25.385Z,85.30
2023-04-12T03:11:59.830Z,85.01
2023-04-12T03:14:31.310Z,85.63
2023-04-12T03:17:02.835Z,85.10
2023-04-12T03:19:35.431Z,85.39
2023-04-12T03:22:06.932Z,85.28
2023-04-12T03:24:39.087Z,85.62
2023-04-12T03:27:10.710Z,85.66
2023-04-12T03:29:42.262Z,85.81
2023-04-12T03:32:13.822Z,85.82
2023-04-12T03:34:45.678Z,85.42
2023-04-12T03:37:17.246Z,85.37
2023-04-12T03:39:48.847Z,85.92
2023-04-12T03:42:32.387Z,85.63
2023-04-12T03:45:07.393Z,85.12
2023-04-12T03:47:39.011Z,85.05
2023-04-12T03:50:13.076Z,85.14
2023-04-12T03:52:44.858Z,85.02
2023-04-12T03:55:18.216Z,84.85
2023-04-12T03:57:49.980Z,85.25
2023-04-12T04:00:21.600Z,85.25
2023-04-12T04:02:53.183Z,84.72
2023-04-12T04:05:24.689Z,85.14
2023-04-12T04:07:56.981Z,84.86
2023-04-12T04:10:28.612Z,84.99
2023-04-12T04:13:00.210Z,84.90
2023-04-12T04:15:32.623Z,85.12
2023-04-12T04:18:04.168Z,85.98
2023-04-12T04:20:35.785Z,85.71
2023-04-12T04:23:10.357Z,85.13
2023-04-12T04:25:41.899Z,85.78
2023-04-12T04:28:15.989Z,86.51
2023-04-12T04:30:47.495Z,86.55
2023-04-12T04:33:19.977Z,86.37
2023-04-12T04:35:52.215Z,86.15
2023-04-12T04:38:26.199Z,85.15
2023-04-12T04:40:58.658Z,85.62
2023-04-12T04:43:31.321Z,85.65
2023-04-12T04:46:03.051Z,85.65
2023-04-12T04:48:34.620Z,85.53
2023-04-12T04:51:06.356Z,85.99
2023-04-12T04:53:38.409Z,86.62
2023-04-12T04:56:11.445Z,85.91
2023-04-12T04:58:42.956Z,85.67
2023-04-12T05:01:16.952Z,86.56
2023-04-12T05:03:49.937Z,85.89
2023-04-12T05:06:22.394Z,86.70
2023-04-12T05:08:53.980Z,85.69
2023-04-12T05:11:25.751Z,85.69
2023-04-12T05:13:57.295Z,86.35
2023-04-12T05:16:28.882Z,86.39
2023-04-12T05:19:01.971Z,87.19
2023-04-12T05:21:33.783Z,86.73
2023-04-12T05:24:05.822Z,86.73
2023-04-12T05:26:37.325Z,86.94
2023-04-12T05:29:12.260Z,87.20
2023-04-12T05:31:43.787Z,87.35
2023-04-12T05:34:15.475Z,87.58
2023-04-12T05:36:46.943Z,87.84
2023-04-12T05:39:20.524Z,87.84
2023-04-12T05:41:52.306Z,87.35
2023-04-12T05:44:23.788Z,87.74
2023-04-12T05:46:55.254Z,87.77
2023-04-12T05:49:32.192Z,87.19
2023-04-12T05:52:04.092Z,87.27
2023-04-12T05:54:35.658Z,87.87
2023-04-12T05:57:10.703Z,87.29
2023-04-12T05:59:42.362Z,87.12
2023-04-12T06:02:13.895Z,87.90
2023-04-12T06:04:50.820Z,87.56
2023-04-12T06:07:23.315Z,87.54
2023-04-12T06:09:54.821Z,87.12
2023-04-12T06:12:26.414Z,87.31
2023-04-12T06:14:57.973Z,87.17
2023-04-12T06:17:29.452Z,86.19
2023-04-12T06:20:01.007Z,85.58
2023-04-12T06:22:32.952Z,86.96
2023-04-12T06:25:05.324Z,86.59
2023-04-12T06:27:36.867Z,86.61
2023-04-12T06:30:09.189Z,86.48
2023-04-12T06:32:40.823Z,85.93
2023-04-12T06:35:12.360Z,86.46
2023-04-12T06:37:43.819Z,86.40
2023-04-12T06:40:15.711Z,86.55
2023-04-12T06:42:47.178Z,85.67
2023-04-12T06:45:19.016Z,85.82
2023-04-12T06:47:50.534Z,85.82
2023-04-12T06:50:25.085Z,85.17
2023-04-12T06:52:56.586Z,85.12
2023-04-12T06:55:29.219Z,85.10
2023-04-12T06:58:00.751Z,85.31
2023-04-12T07:00:32.641Z,85.67
2023-04-12T07:03:04.152Z,85.53
2023-04-12T07:05:39.261Z,85.17
2023-04-12T07:08:10.860Z,84.93
2023-04-12T07:10:42.365Z,84.29
2023-04-12T07:13:14.329Z,84.35
2023-04-12T07:15:46.585Z,82.85
2023-04-12T07:18:18.100Z,83.05
2023-04-12T07:20:53.043Z,83.54
2023-04-12T07:23:25.343Z,82.44
2023-04-12T07:26:00.870Z,83.65
2023-04-12T07:28:32.478Z,83.67
2023-04-12T07:31:07.602Z,84.11
2023-04-12T07:33:41.365Z,82.87
2023-04-12T07:36:16.698Z,83.37
2023-04-12T07:38:48.760Z,83.75
2023-04-12T07:41:20.488Z,84.50
2023-04-12T07:43:51.997Z,83.62
2023-04-12T07:46:23.537Z,85.04
2023-04-12T07:48:55.443Z,82.56
2023-04-12T07:51:27.124Z,82.52
2023-04-12T07:53:58.884Z,83.40
2023-04-12T07:56:33.276Z,84.28
2023-04-12T07:59:04.831Z,83.03
2023-04-12T08:01:36.979Z,81.96
2023-04-12T08:04:08.609Z,81.60
2023-04-12T08:06:40.688Z,83.44
2023-04-12T08:09:12.325Z,83.32
2023-04-12T08:11:43.884Z,83.96
2023-04-12T08:14:15.478Z,83.60
2023-04-12T08:16:47.083Z,84.04
2023-04-12T08:19:20.214Z,84.23
2023-04-12T08:21:52.552Z,84.65
2023-04-12T08:24:23.859Z,84.81
2023-04-12T08:26:56.115Z,84.32
2023-04-12T08:29:27.648Z,84.41
2023-04-12T08:32:00.836Z,84.81
2023-04-12T08:34:33.114Z,85.09
2023-04-12T08:37:04.789Z,84.58
2023-04-12T08:39:37.537Z,85.79
2023-04-12T08:42:09.985Z,83.97
2023-04-12T08:44:41.572Z,85.57
2023-04-12T08:47:13.183Z,85.24
2023-04-12T08:49:44.896Z,85.42
2023-04-12T08:52:17.409Z,86.56
2023-04-12T08:54:49.059Z,86.26
2023-04-12T08:57:22.080Z,85.97
2023-04-12T08:59:54.472Z,84.88
2023-04-12T09:02:26.411Z,85.45
2023-04-12T09:04:58.483Z,85.71
2023-04-12T09:07:31.169Z,84.49
2023-04-12T09:10:02.750Z,84.07
2023-04-12T09:12:34.568Z,83.82
2023-04-12T09:15:08.803Z,82.36
2023-04-12T09:17:41.475Z,81.83
2023-04-12T09:20:19.007Z,81.67
2023-04-12T09:22:52.693Z,79.67
2023-04-12T09:25:41.562Z,80.13
2023-04-12T09:28:27.186Z,78.51
2023-04-12T09:31:00.255Z,77.04
2023-04-12T09:33:39.532Z,78.12
2023-04-12T09:36:14.416Z,77.68
2023-04-12T09:39:05.283Z,76.16
2023-04-12T09:41:37.308Z,77.00
2023-04-12T09:44:08.852Z,75.92
2023-04-12T09:46:51.423Z,76.66
2023-04-12T09:49:42.964Z,75.52
2023-04-12T09:52:14.907Z,74.85
2023-04-12T09:54:50.733Z,75.86
2023-04-12T09:57:24.544Z,75.64
2023-04-12T10:00:00.399Z,75.21
2023-04-12T10:02:32.549Z,74.86
2023-04-12T10:05:04.901Z,73.46
2023-04-12T10:07:37.750Z,73.20
2023-04-12T10:10:12.536Z,71.68
2023-04-12T10:12:47.029Z,71.98
2023-04-12T10:15:21.604Z,71.45
2023-04-12T10:17:54.915Z,69.73
2023-04-12T10:20:29.289Z,71.12
2023-04-12T10:23:01.407Z,71.32
2023-04-12T10:25:33.079Z,71.81
2023-04-12T10:28:14.885Z,70.81
2023-04-12T10:30:49.353Z,69.78
2023-04-12T10:33:27.093Z,71.22
2023-04-12T10:36:06.944Z,67.48
2023-04-12T10:39:05.894Z,65.33
2023-04-12T10:41:37.586Z,64.31
2023-04-12T10:44:28.185Z,59.54
2023-04-12T10:46:59.827Z,64.10
2023-04-12T10:49:32.305Z,62.18
2023-04-12T10:52:10.481Z,62.04
2023-04-12T10:54:42.291Z,61.21
2023-04-12T10:57:47.848Z,62.25
2023-04-12T11:00:20.303Z,61.69
2023-04-12T11:03:07.560Z,62.13
2023-04-12T11:06:06.440Z,61.83
2023-04-12T11:08:45.330Z,61.54
2023-04-12T11:11:22.670Z,63.31
2023-04-12T11:13:55.459Z,62.66
2023-04-12T11:16:29.614Z,60.84
2023-04-12T11:19:06.358Z,58.09
2023-04-12T11:21:38.160Z,59.21
2023-04-12T11:24:09.664Z,59.03
2023-04-12T11:26:44.790Z,58.43
2023-04-12T11:29:24.021Z,60.12
2023-04-12T11:31:56.154Z,61.05
2023-04-12T11:34:32.164Z,59.54
2023-04-12T11:37:08.112Z,60.17
2023-04-12T11:39:44.425Z,60.40
2023-04-12T11:42:17.963Z,59.96
2023-04-12T11:44:56.460Z,60.98
2023-04-12T11:47:29.716Z,59.78
2023-04-12T11:50:01.418Z,58.89
2023-04-12T11:52:33.707Z,59.42
2023-04-12T11:55:11.240Z,59.87
2023-04-12T11:57:43.007Z,63.38
2023-04-12T12:00:15.380Z,59.53
2023-04-12T12:02:56.202Z,60.32
2023-04-12T12:05:41.537Z,58.56
2023-04-12T12:08:13.884Z,59.08
2023-04-12T12:11:04.026Z,59.36
2023-04-12T12:13:56.877Z,59.29
2023-04-12T12:16:30.172Z,59.01
2023-04-12T12:19:07.169Z,59.88
2023-04-12T12:21:38.866Z,59.79
2023-04-12T12:24:14.302Z,60.93
2023-04-12T12:26:46.056Z,59.30
2023-04-12T12:29:23.430Z,59.51
2023-04-12T12:31:55.148Z,57.92
2023-04-12T12:34:31.209Z,59.38
2023-04-12T12:37:02.781Z,56.31
2023-04-12T12:39:34.556Z,58.19
2023-04-12T12:42:06.456Z,56.83
2023-04-12T12:44:38.083Z,54.80
2023-04-12T12:47:14.154Z,53.37
2023-04-12T12:49:46.368Z,56.42
2023-04-12T12:52:19.842Z,53.44
2023-04-12T12:54:51.426Z,54.14
2023-04-12T12:57:22.990Z,54.84
2023-04-12T12:59:54.482Z,53.75
2023-04-12T13:02:26.145Z,54.22
2023-04-12T13:04:58.610Z,53.93
2023-04-12T13:07:30.169Z,52.82
2023-04-12T13:10:02.180Z,53.47
2023-04-12T13:12:34.504Z,54.06
2023-04-12T13:15:21.408Z,53.85
2023-04-12T13:17:55.367Z,53.97
2023-04-12T13:20:27.779Z,53.86
2023-04-12T13:23:01.883Z,54.19
2023-04-12T13:25:33.603Z,53.99
2023-04-12T13:28:05.186Z,54.90
2023-04-12T13:30:36.668Z,56.64
2023-04-12T13:33:09.125Z,56.77
2023-04-12T13:35:40.744Z,57.03
2023-04-12T13:38:12.290Z,57.79
2023-04-12T13:40:43.800Z,58.12
2023-04-12T13:43:16.648Z,57.94
2023-04-12T13:45:48.241Z,59.23
2023-04-12T13:48:19.882Z,60.83
2023-04-12T13:50:55.554Z,60.47
2023-04-12T13:53:27.252Z,58.81
2023-04-12T13:55:58.732Z,58.60
2023-04-12T13:58:30.237Z,57.59
2023-04-12T14:01:02.195Z,56.42
2023-04-12T14:03:34.141Z,54.64
2023-04-12T14:06:09.526Z,53.67
2023-04-12T14:08:41.065Z,53.25
2023-04-12T14:11:12.551Z,53.18
2023-04-12T14:13:44.096Z,53.50
2023-04-12T14:16:15.772Z,53.60
2023-04-12T14:18:47.369Z,52.59
2023-04-12T14:21:18.885Z,52.17
2023-04-12T14:23:50.421Z,52.46
2023-04-12T14:26:22.041Z,52.35
2023-04-12T14:28:54.051Z,53.02
2023-04-12T14:31:25.863Z,51.58
2023-04-12T14:33:59.851Z,52.17
2023-04-12T14:36:33.349Z,52.12
2023-04-12T14:39:07.597Z,51.82
2023-04-12T14:41:41.368Z,51.78
2023-04-12T14:44:16.216Z,52.63
2023-04-12T14:46:49.096Z,52.54
2023-04-12T14:49:20.868Z,52.47
2023-04-12T14:51:52.421Z,52.81
2023-04-12T14:54:24.034Z,53.13
2023-04-12T14:56:56.746Z,53.05
2023-04-12T14:59:28.434Z,52.77
2023-04-12T15:02:00.205Z,52.99
2023-04-12T15:04:31.928Z,54.05
2023-04-12T15:07:03.624Z,55.37
2023-04-12T15:09:35.531Z,56.79
2023-04-12T15:12:07.273Z,56.59
2023-04-12T15:14:38.891Z,56.17
2023-04-12T15:17:10.764Z,56.24
2023-04-12T15:19:42.314Z,55.64
2023-04-12T15:22:13.872Z,55.77
2023-04-12T15:24:45.612Z,57.45
2023-04-12T15:27:17.145Z,57.21
2023-04-12T15:29:49.701Z,56.29
2023-04-12T15:32:21.645Z,56.38
2023-04-12T15:34:55.519Z,56.60
2023-04-12T15:37:27.103Z,56.73
2023-04-12T15:39:58.960Z,56.35
2023-04-12T15:42:30.472Z,55.83
2023-04-12T15:45:02.052Z,55.09
2023-04-12T15:47:33.702Z,55.34
2023-04-12T15:50:08.558Z,56.03
2023-04-12T15:52:42.963Z,55.54
2023-04-12T15:55:18.486Z,54.50
2023-04-12T15:57:49.985Z,54.76
2023-04-12T16:00:26.346Z,55.41
2023-04-12T16:02:58.460Z,55.25
2023-04-12T16:05:34.699Z,55.35
2023-04-12T16:08:06.858Z,55.24
2023-04-12T16:10:39.291Z,55.79
2023-04-12T16:13:10.883Z,55.98
2023-04-12T16:15:42.432Z,55.69
2023-04-12T16:18:14.265Z,55.87
2023-04-12T16:20:46.322Z,56.48
2023-04-12T16:23:17.941Z,56.67
2023-04-12T16:25:49.421Z,57.01
2023-04-12T16:28:22.623Z,57.17
2023-04-12T16:30:55.094Z,58.13
2023-04-12T16:33:27.305Z,58.06
2023-04-12T16:35:58.681Z,57.76
2023-04-12T16:38:30.878Z,58.40
2023-04-12T16:41:02.463Z,58.76
2023-04-12T16:43:34.068Z,58.39
2023-04-12T16:46:06.609Z,58.49
2023-04-12T16:48:41.614Z,58.60
2023-04-12T16:51:13.163Z,58.66
2023-04-12T16:53:44.724Z,57.78
2023-04-12T16:56:17.202Z,58.22
2023-04-12T16:58:48.936Z,58.05
2023-04-12T17:01:21.383Z,58.20
2023-04-12T17:03:55.176Z,58.42
2023-04-12T17:06:30.356Z,58.73
2023-04-12T17:09:02.015Z,58.27
2023-04-12T17:11:33.542Z,58.24
2023-04-12T17:14:05.150Z,58.66
2023-04-12T17:16:36.827Z,58.40
2023-04-12T17:19:10.605Z,58.73
2023-04-12T17:21:42.502Z,57.79
2023-04-12T17:24:15.462Z,58.89
2023-04-12T17:26:47.021Z,59.38
2023-04-12T17:29:19.672Z,61.47
2023-04-12T17:31:53.200Z,61.31
2023-04-12T17:34:27.183Z,60.82
2023-04-12T17:36:58.697Z,61.30
2023-04-12T17:39:30.358Z,60.98
2023-04-12T17:42:02.128Z,61.45
2023-04-12T17:44:33.759Z,61.72
2023-04-12T17:47:05.314Z,60.93
2023-04-12T17:49:37.145Z,60.84
2023-04-12T17:52:08.900Z,60.59
2023-04-12T17:54:40.692Z,61.00
2023-04-12T17:57:12.178Z,61.71
2023-04-12T17:59:43.863Z,60.87
2023-04-12T18:02:17.167Z,60.79
2023-04-12T18:04:48.997Z,61.05
2023-04-12T18:07:21.355Z,61.14
2023-04-12T18:09:52.763Z,61.59
2023-04-12T18:12:24.453Z,62.00
2023-04-12T18:14:56.014Z,63.60
2023-04-12T18:17:27.645Z,64.30
2023-04-12T18:20:01.287Z,66.58
2023-04-12T18:22:34.256Z,68.83
2023-04-12T18:25:07.778Z,72.39
2023-04-12T18:27:41.155Z,73.50
2023-04-12T18:30:17.272Z,74.95
2023-04-12T18:32:48.868Z,75.95
2023-04-12T18:35:20.893Z,77.52
2023-04-12T18:37:52.736Z,77.89
2023-04-12T18:40:24.346Z,82.25
2023-04-12T18:42:58.178Z,81.34
2023-04-12T18:45:31.100Z,83.19
2023-04-12T18:48:03.365Z,85.82
2023-04-12T18:50:41.066Z,88.39
2023-04-12T18:53:12.757Z,89.84
2023-04-12T18:55:46.771Z,91.10
2023-04-12T18:58:18.536Z,90.69
2023-04-12T19:00:50.584Z,92.72
2023-04-12T19:03:23.048Z,93.84
2023-04-12T19:05:55.710Z,94.48
2023-04-12T19:08:28.994Z,93.43
2023-04-12T19:11:00.510Z,93.15
2023-04-12T19:13:36.868Z,91.47
2023-04-12T19:16:08.562Z,92.24
2023-04-12T19:18:40.134Z,93.03
2023-04-12T19:21:11.649Z,92.51
2023-04-12T19:23:44.767Z,92.37
2023-04-12T19:26:17.226Z,92.38
2023-04-12T19:28:52.781Z,94.49
2023-04-12T19:31:24.474Z,94.01
2023-04-12T19:33:56.408Z,94.66
2023-04-12T19:36:28.517Z,94.72
2023-04-12T19:39:01.870Z,93.90
2023-04-12T19:41:34.439Z,94.66
2023-04-12T19:44:06.820Z,94.07
2023-04-12T19:46:38.966Z,94.50
2023-04-12T19:49:12.943Z,94.06
2023-04-12T19:51:46.511Z,93.32
2023-04-12T19:54:18.953Z,93.68
2023-04-12T19:56:50.528Z,94.17
2023-04-12T19:59:24.538Z,94.56
2023-04-12T20:01:58.419Z,93.83
2023-04-12T20:04:30.176Z,94.79
2023-04-12T20:07:04.859Z,95.61
2023-04-12T20:09:36.456Z,95.89
2023-04-12T20:12:09.291Z,96.41
2023-04-12T20:14:41.141Z,95.86
2023-04-12T20:17:13.370Z,96.80
2023-04-12T20:19:44.814Z,97.72
2023-04-12T20:22:18.099Z,97.12
2023-04-12T20:24:53.846Z,97.48
2023-04-12T20:27:25.398Z,98.53
2023-04-12T20:29:59.294Z,99.95
2023-04-12T20:32:30.934Z,100.00
2023-04-12T20:35:06.003Z,94.86
2023-04-12T20:37:37.574Z,94.76
2023-04-12T20:40:09.645Z,94.84
2023-04-12T20:42:42.553Z,96.48
2023-04-12T20:45:16.936Z,96.01
2023-04-12T20:47:48.819Z,95.12
2023-04-12T20:50:22.510Z,95.65
2023-04-12T20:52:57.072Z,94.96
2023-04-12T20:55:34.078Z,95.70
2023-04-12T20:58:08.261Z,94.59
2023-04-12T21:00:40.253Z,95.19
2023-04-12T21:03:13.168Z,95.22
2023-04-12T21:05:46.075Z,95.90
2023-04-12T21:08:18.722Z,95.42
2023-04-12T21:10:50.876Z,95.17
2023-04-12T21:13:22.692Z,96.47
2023-04-12T21:15:56.998Z,96.76
2023-04-12T21:18:28.517Z,97.65
2023-04-12T21:21:00.760Z,97.67
2023-04-12T21:23:35.681Z,97.74
2023-04-12T21:26:07.153Z,97.29
2023-04-12T21:28:38.816Z,96.95
2023-04-12T21:31:10.443Z,97.62
2023-04-12T21:33:42.052Z,96.73
2023-04-12T21:36:14.419Z,96.99
2023-04-12T21:38:46.546Z,96.49
2023-04-12T21:41:18.079Z,97.83
2023-04-12T21:43:49.635Z,97.13
2023-04-12T21:46:21.503Z,96.18
2023-04-12T21:48:53.574Z,97.44
2023-04-12T21:51:26.407Z,97.76
2023-04-12T21:53:57.944Z,96.53
2023-04-12T21:56:29.459Z,97.19
2023-04-12T21:59:01.945Z,97.73
2023-04-12T22:01:33.617Z,96.85
2023-04-12T22:04:05.935Z,96.85
2023-04-12T22:06:37.367Z,97.24
2023-04-12T22:09:08.862Z,96.62
2023-04-12T22:11:40.682Z,95.71
2023-04-12T22:14:12.757Z,95.13
2023-04-12T22:16:45.178Z,94.87
2023-04-12T22:19:17.095Z,93.86
2023-04-12T22:21:49.196Z,94.07
2023-04-12T22:24:21.218Z,93.67
2023-04-12T22:26:56.252Z,95.84
2023-04-12T22:29:27.753Z,96.20
2023-04-12T22:31:59.715Z,96.33
2023-04-12T22:34:32.401Z,95.69
2023-04-12T22:37:04.395Z,95.52
2023-04-12T22:39:36.462Z,95.78
2023-04-12T22:42:08.047Z,95.04
2023-04-12T22:44:39.940Z,94.40
2023-04-12T22:47:13.219Z,94.55
2023-04-12T22:49:46.552Z,94.39
2023-04-12T22:52:18.062Z,93.98
2023-04-12T22:54:49.850Z,94.08
2023-04-12T22:57:21.815Z,93.04
2023-04-12T22:59:53.614Z,93.29
2023-04-12T23:02:25.188Z,93.04
2023-04-12T23:04:56.711Z,92.68
2023-04-12T23:07:30.194Z,92.65
2023-04-12T23:10:02.011Z,92.72
2023-04-12T23:12:33.550Z,92.59
2023-04-12T23:15:05.674Z,92.86
2023-04-12T23:17:37.310Z,92.90
2023-04-12T23:20:14.878Z,92.99
2023-04-12T23:22:56.696Z,93.90
2023-04-12T23:25:39.779Z,94.70
2023-04-12T23:28:15.860Z,94.63
2023-04-12T23:30:51.351Z,94.50
2023-04-12T23:33:25.182Z,93.57
2023-04-12T23:35:57.014Z,92.88
2023-04-12T23:38:32.669Z,92.25
2023-04-12T23:41:07.014Z,93.06
2023-04-12T23:43:38.585Z,93.29
2023-04-12T23:46:10.270Z,93.08
2023-04-12T23:48:42.150Z,93.64
2023-04-12T23:51:13.976Z,93.58
2023-04-12T23:53:45.491Z,94.60
2023-04-12T23:56:17.149Z,96.51
2023-04-12T23:58:48.702Z,94.67
